KPQI/PQI METAR and TAF weather

Enter ICAO airport designator
Station Type Date Time Source
KPQI METAR 2020/07/06 19:56 UTC NOAA

KPQI 061956Z AUTO 32006KT 10SM CLR 23/13 A3010 RMK AO2 SLP216 T02280128


Station Type Date Time Source
KPQI Decoded METAR 2020/07/06 19:56 UTC NOAA

Presque Isle, ME, United States (KPQI) 46-41N 068-03W 146M
Jul 06, 2020 - 03:56 PM EDT / 2020.07.06 1956 UTC
Wind: from the NW (320 degrees) at 7 MPH (6 KT):0
Visibility: 10 mile(s):0
Sky conditions: clear
Temperature: 73.0 F (22.8 C)
Dew Point: 55.0 F (12.8 C)
Relative Humidity: 53%
Pressure (altimeter): 30.1 in. Hg (1019 hPa)
ob: KPQI 061956Z AUTO 32006KT 10SM CLR 23/13 A3010 RMK AO2 SLP216 T02280128
cycle: 20

Station Type Date Time Source
KPQI TAF 2020/07/06 18:30 UTC NOAA

TAF KPQI 061728Z 0618/0718 33007KT P6SM BKN050
FM070000 VRB03KT P6SM FEW250
FM070800 00000KT 2SM BR FEW250
FM071100 12003KT P6SM SCT200

Example: see airport list